sensor_id;sensor_type;location;lat;lon;timestamp;P1;durP1;ratioP1;P2;durP2;ratioP2
50605;SDS011;36557;53.572;10.170;2023-02-28T00:00:09;10.88;;;4.85;;
50605;SDS011;36557;53.572;10.170;2023-02-28T00:02:37;13.52;;;5.78;;
50605;SDS011;36557;53.572;10.170;2023-02-28T00:05:04;11.50;;;6.07;;
50605;SDS011;36557;53.572;10.170;2023-02-28T00:07:31;12.13;;;5.80;;
50605;SDS011;36557;53.572;10.170;2023-02-28T00:09:57;12.10;;;5.25;;
50605;SDS011;36557;53.572;10.170;2023-02-28T00:12:23;13.75;;;5.22;;
50605;SDS011;36557;53.572;10.170;2023-02-28T00:14:49;9.07;;;4.40;;
50605;SDS011;36557;53.572;10.170;2023-02-28T00:17:16;8.98;;;4.00;;
50605;SDS011;36557;53.572;10.170;2023-02-28T00:19:48;7.65;;;3.75;;
50605;SDS011;36557;53.572;10.170;2023-02-28T00:22:16;8.50;;;3.58;;
50605;SDS011;36557;53.572;10.170;2023-02-28T00:24:43;8.57;;;3.55;;
50605;SDS011;36557;53.572;10.170;2023-02-28T00:27:09;8.55;;;4.10;;
50605;SDS011;36557;53.572;10.170;2023-02-28T00:29:36;8.35;;;4.03;;
50605;SDS011;36557;53.572;10.170;2023-02-28T00:32:02;8.40;;;4.20;;
50605;SDS011;36557;53.572;10.170;2023-02-28T00:34:28;7.80;;;3.88;;
50605;SDS011;36557;53.572;10.170;2023-02-28T00:36:54;8.88;;;3.80;;
50605;SDS011;36557;53.572;10.170;2023-02-28T00:39:20;14.52;;;4.25;;
50605;SDS011;36557;53.572;10.170;2023-02-28T00:41:46;11.32;;;4.47;;
50605;SDS011;36557;53.572;10.170;2023-02-28T00:44:11;11.75;;;4.45;;
50605;SDS011;36557;53.572;10.170;2023-02-28T00:46:37;14.48;;;4.68;;
50605;SDS011;36557;53.572;10.170;2023-02-28T00:49:03;11.65;;;4.43;;
50605;SDS011;36557;53.572;10.170;2023-02-28T00:51:29;8.75;;;3.63;;
50605;SDS011;36557;53.572;10.170;2023-02-28T00:53:55;10.00;;;3.90;;
50605;SDS011;36557;53.572;10.170;2023-02-28T00:56:20;7.00;;;3.20;;
50605;SDS011;36557;53.572;10.170;2023-02-28T00:58:46;10.50;;;3.83;;
50605;SDS011;36557;53.572;10.170;2023-02-28T01:01:12;10.38;;;4.32;;
50605;SDS011;36557;53.572;10.170;2023-02-28T01:03:38;8.02;;;3.55;;
50605;SDS011;36557;53.572;10.170;2023-02-28T01:06:04;7.60;;;3.75;;
50605;SDS011;36557;53.572;10.170;2023-02-28T01:08:29;9.20;;;3.45;;
50605;SDS011;36557;53.572;10.170;2023-02-28T01:10:55;11.70;;;3.70;;
50605;SDS011;36557;53.572;10.170;2023-02-28T01:13:22;9.27;;;3.60;;
50605;SDS011;36557;53.572;10.170;2023-02-28T01:15:53;7.05;;;3.47;;
50605;SDS011;36557;53.572;10.170;2023-02-28T01:18:21;6.63;;;3.40;;
50605;SDS011;36557;53.572;10.170;2023-02-28T01:20:47;8.73;;;3.78;;
50605;SDS011;36557;53.572;10.170;2023-02-28T01:23:13;7.57;;;3.75;;
50605;SDS011;36557;53.572;10.170;2023-02-28T01:25:40;9.48;;;3.45;;
50605;SDS011;36557;53.572;10.170;2023-02-28T01:28:06;7.85;;;3.60;;
50605;SDS011;36557;53.572;10.170;2023-02-28T01:30:32;9.27;;;3.90;;
50605;SDS011;36557;53.572;10.170;2023-02-28T01:32:58;6.85;;;3.42;;
50605;SDS011;36557;53.572;10.170;2023-02-28T01:35:24;7.25;;;2.90;;
50605;SDS011;36557;53.572;10.170;2023-02-28T01:37:50;9.35;;;3.13;;
50605;SDS011;36557;53.572;10.170;2023-02-28T01:40:16;7.68;;;2.85;;
50605;SDS011;36557;53.572;10.170;2023-02-28T01:42:41;7.18;;;2.75;;
50605;SDS011;36557;53.572;10.170;2023-02-28T01:45:27;7.38;;;3.00;;
50605;SDS011;36557;53.572;10.170;2023-02-28T01:47:55;5.45;;;2.80;;
50605;SDS011;36557;53.572;10.170;2023-02-28T01:50:28;6.22;;;2.88;;
50605;SDS011;36557;53.572;10.170;2023-02-28T01:52:59;8.90;;;2.90;;
50605;SDS011;36557;53.572;10.170;2023-02-28T01:55:29;7.35;;;2.10;;
50605;SDS011;36557;53.572;10.170;2023-02-28T01:57:57;8.43;;;2.30;;
50605;SDS011;36557;53.572;10.170;2023-02-28T02:00:25;5.32;;;2.58;;
50605;SDS011;36557;53.572;10.170;2023-02-28T02:03:11;5.05;;;2.30;;
50605;SDS011;36557;53.572;10.170;2023-02-28T02:05:40;5.32;;;2.20;;
50605;SDS011;36557;53.572;10.170;2023-02-28T02:08:08;4.63;;;2.20;;
50605;SDS011;36557;53.572;10.170;2023-02-28T02:10:43;3.53;;;2.50;;
50605;SDS011;36557;53.572;10.170;2023-02-28T02:18:59;3.70;;;2.27;;
50605;SDS011;36557;53.572;10.170;2023-02-28T02:24:56;5.38;;;2.22;;
50605;SDS011;36557;53.572;10.170;2023-02-28T02:27:38;4.82;;;2.25;;
50605;SDS011;36557;53.572;10.170;2023-02-28T02:30:37;5.97;;;2.05;;
50605;SDS011;36557;53.572;10.170;2023-02-28T02:39:02;4.97;;;2.33;;
50605;SDS011;36557;53.572;10.170;2023-02-28T02:41:49;7.93;;;2.53;;
50605;SDS011;36557;53.572;10.170;2023-02-28T02:44:20;5.40;;;1.88;;
50605;SDS011;36557;53.572;10.170;2023-02-28T02:47:19;5.60;;;2.13;;
50605;SDS011;36557;53.572;10.170;2023-02-28T02:49:50;5.68;;;2.05;;
50605;SDS011;36557;53.572;10.170;2023-02-28T02:52:20;6.90;;;2.22;;
50605;SDS011;36557;53.572;10.170;2023-02-28T02:54:49;7.32;;;2.10;;
50605;SDS011;36557;53.572;10.170;2023-02-28T02:57:27;7.45;;;2.15;;
50605;SDS011;36557;53.572;10.170;2023-02-28T02:59:58;8.02;;;2.08;;
50605;SDS011;36557;53.572;10.170;2023-02-28T03:02:25;5.60;;;2.25;;
50605;SDS011;36557;53.572;10.170;2023-02-28T03:04:55;6.93;;;2.35;;
50605;SDS011;36557;53.572;10.170;2023-02-28T03:07:25;4.85;;;2.10;;
50605;SDS011;36557;53.572;10.170;2023-02-28T03:09:52;4.68;;;2.20;;
50605;SDS011;36557;53.572;10.170;2023-02-28T03:12:20;6.32;;;2.17;;
50605;SDS011;36557;53.572;10.170;2023-02-28T03:14:56;6.20;;;2.35;;
50605;SDS011;36557;53.572;10.170;2023-02-28T03:17:30;7.32;;;2.20;;
50605;SDS011;36557;53.572;10.170;2023-02-28T03:20:14;7.00;;;2.50;;
50605;SDS011;36557;53.572;10.170;2023-02-28T03:25:21;4.80;;;1.92;;
50605;SDS011;36557;53.572;10.170;2023-02-28T03:33:17;5.85;;;2.45;;
50605;SDS011;36557;53.572;10.170;2023-02-28T03:35:55;5.30;;;2.05;;
50605;SDS011;36557;53.572;10.170;2023-02-28T03:38:38;4.50;;;2.45;;
50605;SDS011;36557;53.572;10.170;2023-02-28T03:41:08;3.65;;;1.85;;
50605;SDS011;36557;53.572;10.170;2023-02-28T03:43:41;6.95;;;2.38;;
50605;SDS011;36557;53.572;10.170;2023-02-28T03:46:14;5.15;;;2.25;;
50605;SDS011;36557;53.572;10.170;2023-02-28T03:48:49;6.22;;;2.17;;
50605;SDS011;36557;53.572;10.170;2023-02-28T03:51:21;6.10;;;2.33;;
50605;SDS011;36557;53.572;10.170;2023-02-28T03:54:09;5.55;;;2.10;;
50605;SDS011;36557;53.572;10.170;2023-02-28T03:56:43;7.65;;;1.98;;
50605;SDS011;36557;53.572;10.170;2023-02-28T04:02:21;7.30;;;1.95;;
50605;SDS011;36557;53.572;10.170;2023-02-28T04:04:47;5.90;;;2.60;;
50605;SDS011;36557;53.572;10.170;2023-02-28T04:07:13;3.60;;;1.80;;
50605;SDS011;36557;53.572;10.170;2023-02-28T04:09:40;6.05;;;2.10;;
50605;SDS011;36557;53.572;10.170;2023-02-28T04:12:06;5.05;;;2.13;;
50605;SDS011;36557;53.572;10.170;2023-02-28T04:14:32;6.07;;;2.17;;
50605;SDS011;36557;53.572;10.170;2023-02-28T04:16:58;5.07;;;2.13;;
50605;SDS011;36557;53.572;10.170;2023-02-28T04:19:24;5.88;;;1.98;;
50605;SDS011;36557;53.572;10.170;2023-02-28T04:21:51;6.30;;;2.03;;
50605;SDS011;36557;53.572;10.170;2023-02-28T04:24:21;6.20;;;2.22;;
50605;SDS011;36557;53.572;10.170;2023-02-28T04:26:51;5.10;;;2.17;;
50605;SDS011;36557;53.572;10.170;2023-02-28T04:29:23;6.13;;;1.85;;
50605;SDS011;36557;53.572;10.170;2023-02-28T04:31:53;4.68;;;2.00;;
50605;SDS011;36557;53.572;10.170;2023-02-28T04:34:23;8.05;;;2.67;;
50605;SDS011;36557;53.572;10.170;2023-02-28T04:36:49;5.72;;;2.22;;
50605;SDS011;36557;53.572;10.170;2023-02-28T04:39:16;7.88;;;2.30;;
50605;SDS011;36557;53.572;10.170;2023-02-28T04:41:43;5.85;;;2.00;;
50605;SDS011;36557;53.572;10.170;2023-02-28T04:44:10;5.10;;;2.55;;
50605;SDS011;36557;53.572;10.170;2023-02-28T04:46:36;4.45;;;1.98;;
50605;SDS011;36557;53.572;10.170;2023-02-28T04:49:02;5.47;;;2.13;;
50605;SDS011;36557;53.572;10.170;2023-02-28T04:51:28;5.07;;;2.08;;
50605;SDS011;36557;53.572;10.170;2023-02-28T04:53:54;5.15;;;2.40;;
50605;SDS011;36557;53.572;10.170;2023-02-28T04:56:20;4.60;;;2.20;;
50605;SDS011;36557;53.572;10.170;2023-02-28T04:58:48;6.10;;;2.22;;
50605;SDS011;36557;53.572;10.170;2023-02-28T05:03:59;4.70;;;2.33;;
50605;SDS011;36557;53.572;10.170;2023-02-28T05:06:27;5.68;;;2.58;;
50605;SDS011;36557;53.572;10.170;2023-02-28T05:08:55;10.98;;;4.35;;
50605;SDS011;36557;53.572;10.170;2023-02-28T05:11:31;11.07;;;5.03;;
50605;SDS011;36557;53.572;10.170;2023-02-28T05:14:02;12.25;;;5.05;;
50605;SDS011;36557;53.572;10.170;2023-02-28T05:16:29;12.32;;;4.65;;
50605;SDS011;36557;53.572;10.170;2023-02-28T05:18:56;11.40;;;5.68;;
50605;SDS011;36557;53.572;10.170;2023-02-28T05:21:24;11.77;;;5.55;;
50605;SDS011;36557;53.572;10.170;2023-02-28T05:23:50;11.15;;;6.00;;
50605;SDS011;36557;53.572;10.170;2023-02-28T05:26:17;10.90;;;4.57;;
50605;SDS011;36557;53.572;10.170;2023-02-28T05:28:43;7.63;;;4.70;;
50605;SDS011;36557;53.572;10.170;2023-02-28T05:31:10;9.48;;;5.03;;
50605;SDS011;36557;53.572;10.170;2023-02-28T05:33:36;7.93;;;4.30;;
50605;SDS011;36557;53.572;10.170;2023-02-28T05:36:02;6.57;;;4.22;;
50605;SDS011;36557;53.572;10.170;2023-02-28T05:38:29;7.45;;;3.50;;
50605;SDS011;36557;53.572;10.170;2023-02-28T05:40:55;8.85;;;3.40;;
50605;SDS011;36557;53.572;10.170;2023-02-28T05:43:21;7.50;;;2.80;;
50605;SDS011;36557;53.572;10.170;2023-02-28T05:45:47;5.22;;;2.95;;
50605;SDS011;36557;53.572;10.170;2023-02-28T05:48:13;5.07;;;2.80;;
50605;SDS011;36557;53.572;10.170;2023-02-28T05:50:39;5.63;;;2.83;;
50605;SDS011;36557;53.572;10.170;2023-02-28T05:53:04;5.63;;;2.70;;
50605;SDS011;36557;53.572;10.170;2023-02-28T05:55:30;5.90;;;2.88;;
50605;SDS011;36557;53.572;10.170;2023-02-28T05:57:56;6.95;;;2.70;;
50605;SDS011;36557;53.572;10.170;2023-02-28T06:00:22;6.72;;;2.70;;
50605;SDS011;36557;53.572;10.170;2023-02-28T06:02:48;4.82;;;2.60;;
50605;SDS011;36557;53.572;10.170;2023-02-28T06:05:14;7.72;;;2.28;;
50605;SDS011;36557;53.572;10.170;2023-02-28T06:07:42;7.35;;;2.78;;
50605;SDS011;36557;53.572;10.170;2023-02-28T06:10:09;6.00;;;2.58;;
50605;SDS011;36557;53.572;10.170;2023-02-28T06:12:36;7.50;;;2.40;;
50605;SDS011;36557;53.572;10.170;2023-02-28T06:15:02;7.10;;;2.60;;
50605;SDS011;36557;53.572;10.170;2023-02-28T06:17:29;7.20;;;2.55;;
50605;SDS011;36557;53.572;10.170;2023-02-28T06:19:54;6.18;;;2.38;;
50605;SDS011;36557;53.572;10.170;2023-02-28T06:22:20;6.70;;;3.20;;
50605;SDS011;36557;53.572;10.170;2023-02-28T06:24:46;6.07;;;2.92;;
50605;SDS011;36557;53.572;10.170;2023-02-28T06:27:12;6.10;;;2.55;;
50605;SDS011;36557;53.572;10.170;2023-02-28T06:29:38;5.40;;;2.80;;
50605;SDS011;36557;53.572;10.170;2023-02-28T06:32:07;5.80;;;2.72;;
50605;SDS011;36557;53.572;10.170;2023-02-28T06:34:33;7.30;;;3.00;;
50605;SDS011;36557;53.572;10.170;2023-02-28T06:36:59;6.30;;;2.30;;
50605;SDS011;36557;53.572;10.170;2023-02-28T06:39:27;5.50;;;2.55;;
50605;SDS011;36557;53.572;10.170;2023-02-28T06:41:54;7.32;;;2.65;;
50605;SDS011;36557;53.572;10.170;2023-02-28T06:44:20;6.72;;;2.83;;
50605;SDS011;36557;53.572;10.170;2023-02-28T06:46:47;4.68;;;2.92;;
50605;SDS011;36557;53.572;10.170;2023-02-28T06:49:13;11.20;;;3.53;;
50605;SDS011;36557;53.572;10.170;2023-02-28T06:51:41;11.90;;;4.32;;
50605;SDS011;36557;53.572;10.170;2023-02-28T06:54:11;9.73;;;4.10;;
50605;SDS011;36557;53.572;10.170;2023-02-28T06:56:38;14.15;;;4.28;;
50605;SDS011;36557;53.572;10.170;2023-02-28T06:59:04;10.73;;;5.47;;
50605;SDS011;36557;53.572;10.170;2023-02-28T07:01:30;13.05;;;7.28;;
50605;SDS011;36557;53.572;10.170;2023-02-28T07:03:57;15.65;;;6.85;;
50605;SDS011;36557;53.572;10.170;2023-02-28T07:06:25;16.27;;;7.22;;
50605;SDS011;36557;53.572;10.170;2023-02-28T07:08:51;12.05;;;5.22;;
50605;SDS011;36557;53.572;10.170;2023-02-28T07:11:18;10.05;;;4.03;;
50605;SDS011;36557;53.572;10.170;2023-02-28T07:13:46;7.28;;;3.72;;
50605;SDS011;36557;53.572;10.170;2023-02-28T07:16:12;7.72;;;3.30;;
50605;SDS011;36557;53.572;10.170;2023-02-28T07:18:38;8.45;;;3.10;;
50605;SDS011;36557;53.572;10.170;2023-02-28T07:21:05;5.35;;;3.08;;
50605;SDS011;36557;53.572;10.170;2023-02-28T07:23:33;11.55;;;3.65;;
50605;SDS011;36557;53.572;10.170;2023-02-28T07:25:59;8.57;;;3.83;;
50605;SDS011;36557;53.572;10.170;2023-02-28T07:28:26;9.15;;;3.80;;
50605;SDS011;36557;53.572;10.170;2023-02-28T07:30:52;9.90;;;3.67;;
50605;SDS011;36557;53.572;10.170;2023-02-28T07:33:17;7.97;;;3.70;;
50605;SDS011;36557;53.572;10.170;2023-02-28T07:35:43;7.65;;;3.78;;
50605;SDS011;36557;53.572;10.170;2023-02-28T07:38:09;10.43;;;3.58;;
50605;SDS011;36557;53.572;10.170;2023-02-28T07:40:35;7.20;;;3.20;;
50605;SDS011;36557;53.572;10.170;2023-02-28T07:43:02;6.95;;;3.22;;
50605;SDS011;36557;53.572;10.170;2023-02-28T07:45:28;11.88;;;4.20;;
50605;SDS011;36557;53.572;10.170;2023-02-28T07:47:55;6.53;;;3.67;;
50605;SDS011;36557;53.572;10.170;2023-02-28T07:50:21;7.72;;;4.00;;
50605;SDS011;36557;53.572;10.170;2023-02-28T07:52:47;7.55;;;3.40;;
50605;SDS011;36557;53.572;10.170;2023-02-28T07:55:13;8.98;;;3.63;;
50605;SDS011;36557;53.572;10.170;2023-02-28T07:57:41;7.18;;;3.83;;
50605;SDS011;36557;53.572;10.170;2023-02-28T08:00:08;9.75;;;3.60;;
50605;SDS011;36557;53.572;10.170;2023-02-28T08:02:35;6.32;;;3.58;;
50605;SDS011;36557;53.572;10.170;2023-02-28T08:05:04;6.18;;;3.72;;
50605;SDS011;36557;53.572;10.170;2023-02-28T08:07:31;8.32;;;3.88;;
50605;SDS011;36557;53.572;10.170;2023-02-28T08:09:58;8.60;;;3.72;;
50605;SDS011;36557;53.572;10.170;2023-02-28T08:12:24;7.53;;;3.50;;
50605;SDS011;36557;53.572;10.170;2023-02-28T08:14:49;6.15;;;3.42;;
50605;SDS011;36557;53.572;10.170;2023-02-28T08:17:15;9.50;;;3.50;;
50605;SDS011;36557;53.572;10.170;2023-02-28T08:19:41;7.57;;;3.42;;
50605;SDS011;36557;53.572;10.170;2023-02-28T08:22:06;6.65;;;3.17;;
50605;SDS011;36557;53.572;10.170;2023-02-28T08:24:32;6.45;;;3.72;;
50605;SDS011;36557;53.572;10.170;2023-02-28T08:26:58;9.05;;;3.35;;
50605;SDS011;36557;53.572;10.170;2023-02-28T08:29:24;8.93;;;3.30;;
50605;SDS011;36557;53.572;10.170;2023-02-28T08:31:50;8.85;;;4.10;;
50605;SDS011;36557;53.572;10.170;2023-02-28T08:34:16;6.20;;;4.00;;
50605;SDS011;36557;53.572;10.170;2023-02-28T08:36:42;8.02;;;3.72;;
50605;SDS011;36557;53.572;10.170;2023-02-28T08:39:10;7.35;;;3.47;;
50605;SDS011;36557;53.572;10.170;2023-02-28T08:41:36;6.40;;;3.00;;
50605;SDS011;36557;53.572;10.170;2023-02-28T08:44:02;9.60;;;3.10;;
50605;SDS011;36557;53.572;10.170;2023-02-28T08:46:27;7.47;;;3.45;;
50605;SDS011;36557;53.572;10.170;2023-02-28T08:48:54;4.80;;;3.20;;
50605;SDS011;36557;53.572;10.170;2023-02-28T08:51:21;9.30;;;3.10;;
50605;SDS011;36557;53.572;10.170;2023-02-28T08:53:52;6.72;;;3.05;;
50605;SDS011;36557;53.572;10.170;2023-02-28T08:56:18;5.85;;;3.00;;
50605;SDS011;36557;53.572;10.170;2023-02-28T08:58:45;7.40;;;2.70;;
50605;SDS011;36557;53.572;10.170;2023-02-28T09:01:15;4.38;;;2.40;;
50605;SDS011;36557;53.572;10.170;2023-02-28T09:03:42;6.50;;;2.00;;
50605;SDS011;36557;53.572;10.170;2023-02-28T09:06:09;5.85;;;2.67;;
50605;SDS011;36557;53.572;10.170;2023-02-28T09:08:36;4.38;;;2.47;;
50605;SDS011;36557;53.572;10.170;2023-02-28T09:11:02;9.13;;;2.60;;
50605;SDS011;36557;53.572;10.170;2023-02-28T09:13:28;8.15;;;2.92;;
50605;SDS011;36557;53.572;10.170;2023-02-28T09:15:57;5.97;;;2.58;;
50605;SDS011;36557;53.572;10.170;2023-02-28T09:18:24;5.45;;;1.95;;
50605;SDS011;36557;53.572;10.170;2023-02-28T09:20:50;4.50;;;2.10;;
50605;SDS011;36557;53.572;10.170;2023-02-28T09:23:15;4.80;;;1.80;;
50605;SDS011;36557;53.572;10.170;2023-02-28T09:25:48;7.40;;;2.70;;
50605;SDS011;36557;53.572;10.170;2023-02-28T09:28:19;4.18;;;2.20;;
50605;SDS011;36557;53.572;10.170;2023-02-28T09:30:46;5.63;;;2.10;;
50605;SDS011;36557;53.572;10.170;2023-02-28T09:33:13;3.95;;;1.65;;
50605;SDS011;36557;53.572;10.170;2023-02-28T09:35:40;3.10;;;1.98;;
50605;SDS011;36557;53.572;10.170;2023-02-28T09:38:06;4.35;;;1.80;;
50605;SDS011;36557;53.572;10.170;2023-02-28T09:40:34;3.33;;;1.40;;
50605;SDS011;36557;53.572;10.170;2023-02-28T09:43:21;7.18;;;1.80;;
50605;SDS011;36557;53.572;10.170;2023-02-28T09:45:52;3.38;;;1.30;;
50605;SDS011;36557;53.572;10.170;2023-02-28T09:48:25;3.35;;;1.73;;
50605;SDS011;36557;53.572;10.170;2023-02-28T09:51:04;2.83;;;1.38;;
50605;SDS011;36557;53.572;10.170;2023-02-28T09:53:35;3.30;;;1.55;;
50605;SDS011;36557;53.572;10.170;2023-02-28T09:56:05;3.28;;;1.90;;
50605;SDS011;36557;53.572;10.170;2023-02-28T10:01:06;2.70;;;1.10;;
50605;SDS011;36557;53.572;10.170;2023-02-28T10:06:42;2.50;;;1.00;;
50605;SDS011;36557;53.572;10.170;2023-02-28T10:09:15;1.77;;;1.08;;
50605;SDS011;36557;53.572;10.170;2023-02-28T10:11:47;0.95;;;0.68;;
50605;SDS011;36557;53.572;10.170;2023-02-28T10:14:16;1.83;;;0.80;;
50605;SDS011;36557;53.572;10.170;2023-02-28T10:16:50;3.20;;;1.40;;
50605;SDS011;36557;53.572;10.170;2023-02-28T10:24:39;2.47;;;1.20;;
50605;SDS011;36557;53.572;10.170;2023-02-28T10:27:15;3.17;;;1.48;;
50605;SDS011;36557;53.572;10.170;2023-02-28T10:29:44;3.22;;;1.65;;
50605;SDS011;36557;53.572;10.170;2023-02-28T10:32:16;3.40;;;1.48;;
50605;SDS011;36557;53.572;10.170;2023-02-28T10:34:43;4.20;;;1.80;;
50605;SDS011;36557;53.572;10.170;2023-02-28T10:37:10;2.17;;;1.42;;
50605;SDS011;36557;53.572;10.170;2023-02-28T10:39:39;3.20;;;1.50;;
50605;SDS011;36557;53.572;10.170;2023-02-28T10:42:21;2.78;;;1.20;;
50605;SDS011;36557;53.572;10.170;2023-02-28T10:44:47;4.68;;;1.60;;
50605;SDS011;36557;53.572;10.170;2023-02-28T10:47:16;3.88;;;1.45;;
50605;SDS011;36557;53.572;10.170;2023-02-28T10:49:47;4.05;;;1.40;;
50605;SDS011;36557;53.572;10.170;2023-02-28T10:52:16;6.15;;;1.67;;
50605;SDS011;36557;53.572;10.170;2023-02-28T10:58:00;3.67;;;1.33;;
50605;SDS011;36557;53.572;10.170;2023-02-28T11:00:26;2.40;;;1.30;;
50605;SDS011;36557;53.572;10.170;2023-02-28T11:02:59;2.78;;;1.45;;
50605;SDS011;36557;53.572;10.170;2023-02-28T11:05:26;3.10;;;1.20;;
50605;SDS011;36557;53.572;10.170;2023-02-28T11:08:10;3.28;;;1.40;;
50605;SDS011;36557;53.572;10.170;2023-02-28T11:10:48;3.45;;;1.40;;
50605;SDS011;36557;53.572;10.170;2023-02-28T11:13:21;2.78;;;1.33;;
50605;SDS011;36557;53.572;10.170;2023-02-28T11:15:54;2.78;;;1.35;;
50605;SDS011;36557;53.572;10.170;2023-02-28T11:18:24;3.90;;;1.13;;
50605;SDS011;36557;53.572;10.170;2023-02-28T11:20:54;3.28;;;1.40;;
50605;SDS011;36557;53.572;10.170;2023-02-28T11:23:23;3.28;;;1.50;;
50605;SDS011;36557;53.572;10.170;2023-02-28T11:25:52;3.72;;;1.20;;
50605;SDS011;36557;53.572;10.170;2023-02-28T11:31:05;1.85;;;1.17;;
50605;SDS011;36557;53.572;10.170;2023-02-28T11:38:47;4.07;;;1.48;;
50605;SDS011;36557;53.572;10.170;2023-02-28T11:47:23;2.30;;;1.30;;
50605;SDS011;36557;53.572;10.170;2023-02-28T11:53:02;3.45;;;1.00;;
50605;SDS011;36557;53.572;10.170;2023-02-28T11:55:37;1.60;;;0.90;;
50605;SDS011;36557;53.572;10.170;2023-02-28T12:03:47;3.15;;;1.10;;
50605;SDS011;36557;53.572;10.170;2023-02-28T12:06:22;3.65;;;1.50;;
50605;SDS011;36557;53.572;10.170;2023-02-28T12:19:57;5.10;;;2.00;;
50605;SDS011;36557;53.572;10.170;2023-02-28T12:27:43;2.40;;;1.52;;
50605;SDS011;36557;53.572;10.170;2023-02-28T12:30:24;3.17;;;1.60;;
50605;SDS011;36557;53.572;10.170;2023-02-28T12:33:06;2.28;;;1.45;;
50605;SDS011;36557;53.572;10.170;2023-02-28T12:38:12;3.45;;;1.10;;
50605;SDS011;36557;53.572;10.170;2023-02-28T12:43:33;2.58;;;1.30;;
50605;SDS011;36557;53.572;10.170;2023-02-28T12:46:07;2.50;;;1.27;;
50605;SDS011;36557;53.572;10.170;2023-02-28T12:48:52;2.17;;;1.23;;
50605;SDS011;36557;53.572;10.170;2023-02-28T12:51:22;2.35;;;1.17;;
50605;SDS011;36557;53.572;10.170;2023-02-28T12:54:10;2.83;;;1.50;;
50605;SDS011;36557;53.572;10.170;2023-02-28T13:05:30;2.72;;;1.30;;
50605;SDS011;36557;53.572;10.170;2023-02-28T13:11:24;1.45;;;0.90;;
50605;SDS011;36557;53.572;10.170;2023-02-28T13:13:57;1.90;;;1.23;;
50605;SDS011;36557;53.572;10.170;2023-02-28T13:16:25;2.72;;;1.23;;
50605;SDS011;36557;53.572;10.170;2023-02-28T13:18:51;2.80;;;1.33;;
50605;SDS011;36557;53.572;10.170;2023-02-28T13:21:27;2.67;;;1.05;;
50605;SDS011;36557;53.572;10.170;2023-02-28T13:26:22;3.28;;;1.30;;
50605;SDS011;36557;53.572;10.170;2023-02-28T13:29:01;4.47;;;1.17;;
50605;SDS011;36557;53.572;10.170;2023-02-28T13:42:32;2.30;;;1.15;;
50605;SDS011;36557;53.572;10.170;2023-02-28T13:53:19;4.47;;;2.10;;
50605;SDS011;36557;53.572;10.170;2023-02-28T13:59:01;2.42;;;1.25;;
50605;SDS011;36557;53.572;10.170;2023-02-28T14:07:16;2.10;;;1.00;;
50605;SDS011;36557;53.572;10.170;2023-02-28T14:09:54;3.30;;;1.63;;
50605;SDS011;36557;53.572;10.170;2023-02-28T14:18:03;2.60;;;1.20;;
50605;SDS011;36557;53.572;10.170;2023-02-28T14:20:40;4.72;;;1.13;;
50605;SDS011;36557;53.572;10.170;2023-02-28T14:37:26;2.55;;;1.60;;
50605;SDS011;36557;53.572;10.170;2023-02-28T14:39:55;2.80;;;1.00;;
50605;SDS011;36557;53.572;10.170;2023-02-28T14:42:28;1.98;;;1.20;;
50605;SDS011;36557;53.572;10.170;2023-02-28T14:44:59;2.55;;;0.90;;
50605;SDS011;36557;53.572;10.170;2023-02-28T14:47:27;2.50;;;1.10;;
50605;SDS011;36557;53.572;10.170;2023-02-28T14:49:55;4.75;;;1.15;;
50605;SDS011;36557;53.572;10.170;2023-02-28T14:52:27;1.27;;;0.90;;
50605;SDS011;36557;53.572;10.170;2023-02-28T14:57:39;2.28;;;1.38;;
50605;SDS011;36557;53.572;10.170;2023-02-28T15:00:11;3.72;;;1.70;;
50605;SDS011;36557;53.572;10.170;2023-02-28T15:02:42;5.90;;;1.50;;
50605;SDS011;36557;53.572;10.170;2023-02-28T15:07:45;4.23;;;1.40;;
50605;SDS011;36557;53.572;10.170;2023-02-28T15:10:16;1.95;;;1.00;;
50605;SDS011;36557;53.572;10.170;2023-02-28T15:13:06;2.97;;;1.63;;
50605;SDS011;36557;53.572;10.170;2023-02-28T15:23:44;3.40;;;1.80;;
50605;SDS011;36557;53.572;10.170;2023-02-28T15:26:16;3.70;;;2.58;;
50605;SDS011;36557;53.572;10.170;2023-02-28T15:28:45;4.85;;;1.85;;
50605;SDS011;36557;53.572;10.170;2023-02-28T15:31:19;2.92;;;2.33;;
50605;SDS011;36557;53.572;10.170;2023-02-28T15:33:52;2.50;;;1.70;;
50605;SDS011;36557;53.572;10.170;2023-02-28T15:36:19;4.55;;;1.30;;
50605;SDS011;36557;53.572;10.170;2023-02-28T15:38:50;6.07;;;1.40;;
50605;SDS011;36557;53.572;10.170;2023-02-28T15:41:30;2.60;;;1.40;;
50605;SDS011;36557;53.572;10.170;2023-02-28T15:44:16;3.30;;;1.30;;
50605;SDS011;36557;53.572;10.170;2023-02-28T15:47:01;4.40;;;1.42;;
50605;SDS011;36557;53.572;10.170;2023-02-28T15:52:02;5.75;;;1.65;;
50605;SDS011;36557;53.572;10.170;2023-02-28T15:54:29;2.13;;;1.30;;
50605;SDS011;36557;53.572;10.170;2023-02-28T15:57:01;2.33;;;1.45;;
50605;SDS011;36557;53.572;10.170;2023-02-28T15:59:33;2.75;;;1.50;;
50605;SDS011;36557;53.572;10.170;2023-02-28T16:04:57;3.58;;;1.67;;
50605;SDS011;36557;53.572;10.170;2023-02-28T16:07:23;1.98;;;1.25;;
50605;SDS011;36557;53.572;10.170;2023-02-28T16:09:49;3.35;;;1.45;;
50605;SDS011;36557;53.572;10.170;2023-02-28T16:12:15;3.03;;;1.40;;
50605;SDS011;36557;53.572;10.170;2023-02-28T16:14:42;4.05;;;1.70;;
50605;SDS011;36557;53.572;10.170;2023-02-28T16:17:31;8.02;;;3.95;;
50605;SDS011;36557;53.572;10.170;2023-02-28T16:19:59;3.75;;;1.70;;
50605;SDS011;36557;53.572;10.170;2023-02-28T16:22:25;3.78;;;1.52;;
50605;SDS011;36557;53.572;10.170;2023-02-28T16:24:51;3.08;;;1.98;;
50605;SDS011;36557;53.572;10.170;2023-02-28T16:27:20;7.72;;;3.50;;
50605;SDS011;36557;53.572;10.170;2023-02-28T16:29:51;3.17;;;1.95;;
50605;SDS011;36557;53.572;10.170;2023-02-28T16:32:18;3.55;;;1.88;;
50605;SDS011;36557;53.572;10.170;2023-02-28T16:34:44;4.38;;;1.65;;
50605;SDS011;36557;53.572;10.170;2023-02-28T16:37:11;9.95;;;4.97;;
50605;SDS011;36557;53.572;10.170;2023-02-28T16:39:42;5.93;;;2.80;;
50605;SDS011;36557;53.572;10.170;2023-02-28T16:42:25;4.70;;;3.15;;
50605;SDS011;36557;53.572;10.170;2023-02-28T16:44:53;5.33;;;1.90;;
50605;SDS011;36557;53.572;10.170;2023-02-28T16:47:20;4.07;;;1.77;;
50605;SDS011;36557;53.572;10.170;2023-02-28T16:49:46;3.33;;;1.90;;
50605;SDS011;36557;53.572;10.170;2023-02-28T16:52:12;4.10;;;1.80;;
50605;SDS011;36557;53.572;10.170;2023-02-28T16:54:39;4.05;;;1.85;;
50605;SDS011;36557;53.572;10.170;2023-02-28T16:57:06;4.38;;;3.08;;
50605;SDS011;36557;53.572;10.170;2023-02-28T16:59:40;7.43;;;5.07;;
50605;SDS011;36557;53.572;10.170;2023-02-28T17:02:12;15.50;;;7.30;;
50605;SDS011;36557;53.572;10.170;2023-02-28T17:04:40;18.00;;;9.50;;
50605;SDS011;36557;53.572;10.170;2023-02-28T17:07:08;7.47;;;4.20;;
50605;SDS011;36557;53.572;10.170;2023-02-28T17:09:38;6.72;;;3.55;;
50605;SDS011;36557;53.572;10.170;2023-02-28T17:12:04;5.20;;;2.85;;
50605;SDS011;36557;53.572;10.170;2023-02-28T17:14:30;4.53;;;2.80;;
50605;SDS011;36557;53.572;10.170;2023-02-28T17:16:56;5.63;;;2.80;;
50605;SDS011;36557;53.572;10.170;2023-02-28T17:19:22;5.45;;;2.50;;
50605;SDS011;36557;53.572;10.170;2023-02-28T17:21:48;5.32;;;2.80;;
50605;SDS011;36557;53.572;10.170;2023-02-28T17:24:15;4.60;;;2.30;;
50605;SDS011;36557;53.572;10.170;2023-02-28T17:26:41;3.03;;;1.83;;
50605;SDS011;36557;53.572;10.170;2023-02-28T17:29:40;3.97;;;1.85;;
50605;SDS011;36557;53.572;10.170;2023-02-28T17:31:59;4.78;;;2.17;;
50605;SDS011;36557;53.572;10.170;2023-02-28T17:34:25;4.10;;;2.22;;